»·PEaware :: SKY628 KDLS-KMMV

SKY628 :: KDLS-KMMV

FLIGHT INFORMATION

Flight Status: Arrived
Operator:
Sky High Charters
More flights by this operator :: More flights under this callsign
Pilot: Christian M. (7618)
Aircraft: CESSNA 310
(C310)
More flights by this aircraft type
Origin: KDLS Columbia Gorge Regl/The Dalle
United States
Destination: KMMV McMinnville Mun
United States
More flights between these airports :: More routes between these airports
Route: DALLS1 LTJ V112 BTG V287 UBG
File this flight plan on PilotEdge
Remarks: Scenario 5
Altitude:
(Current/Filed)
8,000ft
Speed:
(Current/Filed)
170kts
Departed: 09-Jan-19 03:26 PM
Arrived: 09-Jan-19 04:11 PM
Distance/Time
Traveled:
87nm/0:45
Distance/Time
To Go:
Arrived

Flight Plot

Page will automatically refresh every two minutes.

Flight plan parsing failed; only flown route is shown


Map Options




Map Legend


Flown Route
Filed Route
Departure Airport
Arrival Airport
Navaid (VOR, NDB)
Fix

Horizontal Profiles

Position Reports

Time Latitude Longitude Heading Altitude Ground
Speed
09-Jan-19 15:17 45.618908 -121.172638 299 224ft 0kts
09-Jan-19 15:18 45.618908 -121.172638 299 224ft 0kts
09-Jan-19 15:19 45.618908 -121.172638 299 224ft 0kts
09-Jan-19 15:20 45.618908 -121.172638 299 224ft 0kts
09-Jan-19 15:21 45.619287 -121.174947 270 221ft 12kts
09-Jan-19 15:22 45.619896 -121.176614 308 219ft 0kts
09-Jan-19 15:24 45.619896 -121.176614 308 219ft 0kts
09-Jan-19 15:25 45.620816 -121.176043 85 215ft 24kts
09-Jan-19 15:26 45.620698 -121.144536 111 1066ft 111kts
09-Jan-19 15:27 45.593150 -121.128242 169 2663ft 110kts
09-Jan-19 15:28 45.561653 -121.113471 163 3486ft 134kts
09-Jan-19 15:29 45.532692 -121.093200 105 4464ft 133kts
09-Jan-19 15:30 45.562620 -121.079835 337 5362ft 143kts
09-Jan-19 15:31 45.604851 -121.089024 2 6335ft 155kts
09-Jan-19 15:32 45.650441 -121.090948 357 7396ft 172kts
09-Jan-19 15:33 45.699967 -121.096563 337 7983ft 200kts
09-Jan-19 15:34 45.725335 -121.157572 262 7976ft 180kts
09-Jan-19 15:35 45.722504 -121.228335 254 7886ft 177kts
09-Jan-19 15:36 45.717302 -121.296980 258 7994ft 174kts
09-Jan-19 15:37 45.718995 -121.367944 266 7994ft 178kts
09-Jan-19 15:38 45.725165 -121.438955 275 8028ft 182kts
09-Jan-19 15:39 45.729110 -121.509898 258 8051ft 175kts
09-Jan-19 15:40 45.727442 -121.580474 264 8011ft 180kts
09-Jan-19 15:41 45.730503 -121.653022 263 7928ft 180kts
09-Jan-19 15:42 45.731371 -121.723790 261 7994ft 174kts
09-Jan-19 15:43 45.733346 -121.792028 257 8173ft 164kts
09-Jan-19 15:43 45.732269 -121.848267 266 8155ft 176kts
09-Jan-19 15:45 45.734986 -121.930855 263 8139ft 175kts
09-Jan-19 15:46 45.737114 -122.002462 267 8188ft 179kts
09-Jan-19 15:46 45.741167 -122.063169 265 8173ft 183kts
09-Jan-19 15:47 45.744734 -122.136610 266 8146ft 183kts
09-Jan-19 15:48 45.745390 -122.208715 256 8097ft 174kts
09-Jan-19 15:49 45.744693 -122.279244 260 8147ft 178kts
09-Jan-19 15:51 45.745810 -122.362968 265 8195ft 180kts
09-Jan-19 15:51 45.746987 -122.423249 261 8151ft 182kts
09-Jan-19 15:52 45.749245 -122.496475 268 8109ft 186kts
09-Jan-19 15:53 45.747061 -122.566298 248 8158ft 172kts
09-Jan-19 15:54 45.721895 -122.617379 202 8117ft 152kts
09-Jan-19 15:55 45.685779 -122.649972 212 8189ft 152kts
09-Jan-19 15:56 45.649355 -122.679434 193 7749ft 162kts
09-Jan-19 15:57 45.601452 -122.690518 194 6676ft 175kts
09-Jan-19 15:58 45.556570 -122.723453 206 5526ft 179kts
09-Jan-19 15:59 45.513934 -122.757795 201 4682ft 173kts
09-Jan-19 16:00 45.470512 -122.785910 202 3952ft 172kts
09-Jan-19 16:01 45.427815 -122.816193 201 3368ft 165kts
09-Jan-19 16:02 45.387183 -122.841394 202 3304ft 155kts
09-Jan-19 16:03 45.347906 -122.871507 203 3139ft 150kts
09-Jan-19 16:04 45.309479 -122.896982 205 3047ft 154kts
09-Jan-19 16:05 45.281639 -122.948484 237 2710ft 166kts
09-Jan-19 16:06 45.256666 -123.003015 226 2152ft 152kts
09-Jan-19 16:07 45.236864 -123.051229 227 1585ft 137kts
09-Jan-19 16:08 45.215150 -123.096698 239 726ft 140kts
09-Jan-19 16:09 45.197622 -123.135227 234 162ft 80kts
09-Jan-19 16:10 45.195475 -123.142786 33 161ft 12kts
09-Jan-19 16:11 45.198273 -123.139681 116 161ft 0kts
09-Jan-19 16:12 45.198273 -123.139680 116 161ft 0kts
09-Jan-19 16:13 45.198273 -123.139680 116 161ft 0kts
09-Jan-19 16:14 45.198273 -123.139680 116 161ft 0kts
09-Jan-19 16:15 45.198273 -123.139680 116 161ft 0kts
09-Jan-19 16:16 45.198273 -123.139680 116 161ft 0kts

Navigation Log

Ident Type
Flight plan parsing failed, navigation log unavailable